sensor_id;sensor_type;location;lat;lon;timestamp;pressure;altitude;pressure_sealevel;temperature;humidity
84055;BME280;74141;51.504;7.122;2023-11-22T00:00:12;102172.25;;;5.60;89.43
84055;BME280;74141;51.504;7.122;2023-11-22T00:02:38;102170.53;;;5.63;88.64
84055;BME280;74141;51.504;7.122;2023-11-22T00:05:04;102163.53;;;5.62;88.13
84055;BME280;74141;51.504;7.122;2023-11-22T00:07:31;102163.53;;;5.61;88.10
84055;BME280;74141;51.504;7.122;2023-11-22T00:09:56;102148.69;;;5.49;88.88
84055;BME280;74141;51.504;7.122;2023-11-22T00:12:22;102157.41;;;5.48;89.30
84055;BME280;74141;51.504;7.122;2023-11-22T00:14:48;102160.88;;;5.49;89.48
84055;BME280;74141;51.504;7.122;2023-11-22T00:17:13;102163.50;;;5.52;89.68
84055;BME280;74141;51.504;7.122;2023-11-22T00:19:39;102169.56;;;5.46;89.48
84055;BME280;74141;51.504;7.122;2023-11-22T00:22:05;102160.84;;;5.46;89.33
84055;BME280;74141;51.504;7.122;2023-11-22T00:24:38;102149.50;;;5.36;89.67
84055;BME280;74141;51.504;7.122;2023-11-22T00:27:03;102165.19;;;5.38;89.59
84055;BME280;74141;51.504;7.122;2023-11-22T00:29:29;102170.41;;;5.33;90.44
84055;BME280;74141;51.504;7.122;2023-11-22T00:31:54;102164.25;;;5.28;90.68
84055;BME280;74141;51.504;7.122;2023-11-22T00:34:19;102163.34;;;5.19;91.01
84055;BME280;74141;51.504;7.122;2023-11-22T00:36:44;102165.97;;;5.19;91.51
84055;BME280;74141;51.504;7.122;2023-11-22T00:39:10;102172.09;;;5.28;90.81
84055;BME280;74141;51.504;7.122;2023-11-22T00:41:38;102172.13;;;5.33;89.83
84055;BME280;74141;51.504;7.122;2023-11-22T00:44:04;102169.50;;;5.30;90.25
84055;BME280;74141;51.504;7.122;2023-11-22T00:46:31;102160.81;;;5.29;90.91
84055;BME280;74141;51.504;7.122;2023-11-22T00:48:56;102169.47;;;5.25;91.20
84055;BME280;74141;51.504;7.122;2023-11-22T00:51:22;102168.59;;;5.19;91.26
84055;BME280;74141;51.504;7.122;2023-11-22T00:53:47;102176.44;;;5.20;91.85
84055;BME280;74141;51.504;7.122;2023-11-22T00:56:12;102169.38;;;5.06;92.22
84055;BME280;74141;51.504;7.122;2023-11-22T00:58:38;102178.09;;;5.12;92.35
84055;BME280;74141;51.504;7.122;2023-11-22T01:01:03;102180.75;;;5.15;91.27
84055;BME280;74141;51.504;7.122;2023-11-22T01:03:28;102183.28;;;5.03;92.09
84055;BME280;74141;51.504;7.122;2023-11-22T01:05:54;102184.97;;;4.92;92.78
84055;BME280;74141;51.504;7.122;2023-11-22T01:08:19;102184.91;;;4.86;92.40
84055;BME280;74141;51.504;7.122;2023-11-22T01:10:44;102190.94;;;4.78;93.11
84055;BME280;74141;51.504;7.122;2023-11-22T01:13:11;102188.34;;;4.81;93.00
84055;BME280;74141;51.504;7.122;2023-11-22T01:15:36;102190.03;;;4.74;93.06
84055;BME280;74141;51.504;7.122;2023-11-22T01:18:01;102194.28;;;4.65;94.37
84055;BME280;74141;51.504;7.122;2023-11-22T01:20:27;102198.69;;;4.67;94.42
84055;BME280;74141;51.504;7.122;2023-11-22T01:22:52;102209.94;;;4.63;94.58
84055;BME280;74141;51.504;7.122;2023-11-22T01:25:17;102206.44;;;4.57;94.26
84055;BME280;74141;51.504;7.122;2023-11-22T01:27:42;102208.09;;;4.52;94.70
84055;BME280;74141;51.504;7.122;2023-11-22T01:30:08;102209.94;;;4.62;94.61
84055;BME280;74141;51.504;7.122;2023-11-22T01:32:33;102208.22;;;4.64;94.64
84055;BME280;74141;51.504;7.122;2023-11-22T01:35:00;102209.06;;;4.60;94.91
84055;BME280;74141;51.504;7.122;2023-11-22T01:37:25;102224.81;;;4.70;93.88
84055;BME280;74141;51.504;7.122;2023-11-22T01:39:52;102228.28;;;4.69;94.34
84055;BME280;74141;51.504;7.122;2023-11-22T01:42:19;102229.97;;;4.63;94.44
84055;BME280;74141;51.504;7.122;2023-11-22T01:44:45;102239.50;;;4.61;94.50
84055;BME280;74141;51.504;7.122;2023-11-22T01:47:10;102243.78;;;4.51;94.43
84055;BME280;74141;51.504;7.122;2023-11-22T01:49:36;102234.09;;;4.41;95.31
84055;BME280;74141;51.504;7.122;2023-11-22T01:52:03;102240.94;;;4.29;95.85
84055;BME280;74141;51.504;7.122;2023-11-22T01:54:29;102241.81;;;4.32;96.24
84055;BME280;74141;51.504;7.122;2023-11-22T01:56:55;102239.84;;;4.10;96.22
84055;BME280;74141;51.504;7.122;2023-11-22T01:59:21;102249.38;;;4.03;96.62
84055;BME280;74141;51.504;7.122;2023-11-22T02:01:47;102245.63;;;3.83;96.36
84055;BME280;74141;51.504;7.122;2023-11-22T02:04:14;102268.22;;;3.81;97.13
84055;BME280;74141;51.504;7.122;2023-11-22T02:06:40;102272.66;;;3.90;96.76
84055;BME280;74141;51.504;7.122;2023-11-22T02:09:12;102276.09;;;3.86;96.59
84055;BME280;74141;51.504;7.122;2023-11-22T02:11:43;102278.69;;;3.86;96.58
84055;BME280;74141;51.504;7.122;2023-11-22T02:14:13;102274.03;;;3.64;97.04
84055;BME280;74141;51.504;7.122;2023-11-22T02:16:38;102278.75;;;3.90;97.16
84055;BME280;74141;51.504;7.122;2023-11-22T02:19:15;102296.09;;;3.87;96.87
84055;BME280;74141;51.504;7.122;2023-11-22T02:21:41;102290.78;;;3.81;97.09
84055;BME280;74141;51.504;7.122;2023-11-22T02:24:12;102286.44;;;3.80;98.55
84055;BME280;74141;51.504;7.122;2023-11-22T02:26:38;102278.50;;;3.71;98.11
84055;BME280;74141;51.504;7.122;2023-11-22T02:29:13;102288.97;;;3.75;98.24
84055;BME280;74141;51.504;7.122;2023-11-22T02:31:41;102271.56;;;3.73;98.23
84055;BME280;74141;51.504;7.122;2023-11-22T02:34:12;102289.03;;;3.78;98.85
84055;BME280;74141;51.504;7.122;2023-11-22T02:36:38;102278.50;;;3.72;98.37
84055;BME280;74141;51.504;7.122;2023-11-22T02:39:12;102277.59;;;3.69;98.91
84055;BME280;74141;51.504;7.122;2023-11-22T02:41:39;102280.38;;;3.82;98.13
84055;BME280;74141;51.504;7.122;2023-11-22T02:44:13;102269.31;;;4.00;97.59
84055;BME280;74141;51.504;7.122;2023-11-22T02:46:42;102274.50;;;3.98;98.06
84055;BME280;74141;51.504;7.122;2023-11-22T02:49:13;102274.50;;;4.00;96.87
84055;BME280;74141;51.504;7.122;2023-11-22T02:51:38;102284.06;;;3.99;96.93
84055;BME280;74141;51.504;7.122;2023-11-22T02:54:13;102285.75;;;3.94;97.13
84055;BME280;74141;51.504;7.122;2023-11-22T02:56:39;102285.63;;;3.85;97.13
84055;BME280;74141;51.504;7.122;2023-11-22T02:59:13;102288.34;;;3.94;96.79
84055;BME280;74141;51.504;7.122;2023-11-22T03:01:39;102290.03;;;3.89;96.68
84055;BME280;74141;51.504;7.122;2023-11-22T03:04:08;102283.84;;;3.80;97.40
84055;BME280;74141;51.504;7.122;2023-11-22T03:06:33;102291.53;;;3.72;97.05
84055;BME280;74141;51.504;7.122;2023-11-22T03:08:58;102301.72;;;3.56;97.87
84055;BME280;74141;51.504;7.122;2023-11-22T03:11:23;102308.69;;;3.57;97.08
84055;BME280;74141;51.504;7.122;2023-11-22T03:13:49;102293.72;;;3.44;97.16
84055;BME280;74141;51.504;7.122;2023-11-22T03:16:14;102321.50;;;3.43;97.54
84055;BME280;74141;51.504;7.122;2023-11-22T03:18:39;102328.25;;;3.29;98.01
84055;BME280;74141;51.504;7.122;2023-11-22T03:21:05;102335.88;;;3.19;97.88
84055;BME280;74141;51.504;7.122;2023-11-22T03:23:30;102328.88;;;3.15;98.67
84055;BME280;74141;51.504;7.122;2023-11-22T03:25:56;102327.03;;;3.09;98.65
84055;BME280;74141;51.504;7.122;2023-11-22T03:28:21;102327.88;;;3.07;98.46
84055;BME280;74141;51.504;7.122;2023-11-22T03:30:47;102323.38;;;2.97;98.38
84055;BME280;74141;51.504;7.122;2023-11-22T03:33:12;102319.03;;;2.96;98.82
84055;BME280;74141;51.504;7.122;2023-11-22T03:35:40;102338.16;;;2.99;98.67
84055;BME280;74141;51.504;7.122;2023-11-22T03:38:06;102330.22;;;2.92;98.57
84055;BME280;74141;51.504;7.122;2023-11-22T03:40:31;102340.66;;;2.95;98.14
84055;BME280;74141;51.504;7.122;2023-11-22T03:42:56;102339.72;;;2.88;98.28
84055;BME280;74141;51.504;7.122;2023-11-22T03:45:22;102344.03;;;2.88;98.65
84055;BME280;74141;51.504;7.122;2023-11-22T03:47:47;102346.38;;;2.74;99.06
84055;BME280;74141;51.504;7.122;2023-11-22T03:50:12;102354.03;;;2.67;99.59
84055;BME280;74141;51.504;7.122;2023-11-22T03:52:39;102349.63;;;2.63;99.35
84055;BME280;74141;51.504;7.122;2023-11-22T03:55:05;102354.16;;;2.73;99.40
84055;BME280;74141;51.504;7.122;2023-11-22T03:57:30;102356.63;;;2.65;99.55
84055;BME280;74141;51.504;7.122;2023-11-22T03:59:56;102314.16;;;2.22;99.04
84055;BME280;74141;51.504;7.122;2023-11-22T04:02:21;102365.63;;;2.38;99.47
84055;BME280;74141;51.504;7.122;2023-11-22T04:04:46;102369.69;;;2.25;100.00
84055;BME280;74141;51.504;7.122;2023-11-22T04:07:11;102374.28;;;2.37;100.00
84055;BME280;74141;51.504;7.122;2023-11-22T04:09:37;102377.13;;;2.50;99.97
84055;BME280;74141;51.504;7.122;2023-11-22T04:12:03;102387.38;;;2.43;99.52
84055;BME280;74141;51.504;7.122;2023-11-22T04:14:29;102397.06;;;2.50;99.55
84055;BME280;74141;51.504;7.122;2023-11-22T04:16:54;102407.38;;;2.45;99.25
84055;BME280;74141;51.504;7.122;2023-11-22T04:19:20;102406.25;;;2.33;99.79
84055;BME280;74141;51.504;7.122;2023-11-22T04:21:45;102411.22;;;2.22;99.61
84055;BME280;74141;51.504;7.122;2023-11-22T04:24:10;102410.97;;;2.10;99.99
84055;BME280;74141;51.504;7.122;2023-11-22T04:26:37;102415.16;;;2.03;100.00
84055;BME280;74141;51.504;7.122;2023-11-22T04:29:03;102401.13;;;1.97;100.00
84055;BME280;74141;51.504;7.122;2023-11-22T04:31:29;102412.31;;;1.93;100.00
84055;BME280;74141;51.504;7.122;2023-11-22T04:33:55;102407.34;;;2.03;100.00
84055;BME280;74141;51.504;7.122;2023-11-22T04:36:22;102393.88;;;1.82;100.00
84055;BME280;74141;51.504;7.122;2023-11-22T04:38:48;102406.03;;;1.85;100.00
84055;BME280;74141;51.504;7.122;2023-11-22T04:41:14;102407.06;;;1.91;100.00
84055;BME280;74141;51.504;7.122;2023-11-22T04:43:39;102402.72;;;1.90;100.00
84055;BME280;74141;51.504;7.122;2023-11-22T04:46:05;102399.72;;;1.72;100.00
84055;BME280;74141;51.504;7.122;2023-11-22T04:48:30;102407.78;;;1.84;100.00
84055;BME280;74141;51.504;7.122;2023-11-22T04:50:55;102404.91;;;1.72;100.00
84055;BME280;74141;51.504;7.122;2023-11-22T04:53:20;102410.34;;;1.83;100.00
84055;BME280;74141;51.504;7.122;2023-11-22T04:55:46;102405.75;;;1.71;100.00
84055;BME280;74141;51.504;7.122;2023-11-22T04:58:11;102394.34;;;1.65;100.00
84055;BME280;74141;51.504;7.122;2023-11-22T05:00:36;102393.97;;;1.50;100.00
84055;BME280;74141;51.504;7.122;2023-11-22T05:03:01;102401.88;;;1.54;100.00
84055;BME280;74141;51.504;7.122;2023-11-22T05:05:27;102405.00;;;1.41;100.00
84055;BME280;74141;51.504;7.122;2023-11-22T05:07:52;102414.06;;;1.23;100.00
84055;BME280;74141;51.504;7.122;2023-11-22T05:10:17;102419.03;;;1.14;100.00
84055;BME280;74141;51.504;7.122;2023-11-22T05:12:43;102425.59;;;1.01;100.00
84055;BME280;74141;51.504;7.122;2023-11-22T05:15:10;102430.41;;;0.88;100.00
84055;BME280;74141;51.504;7.122;2023-11-22T05:17:35;102427.44;;;0.74;100.00
84055;BME280;74141;51.504;7.122;2023-11-22T05:20:01;102432.38;;;0.65;100.00
84055;BME280;74141;51.504;7.122;2023-11-22T05:22:26;102438.16;;;0.55;100.00
84055;BME280;74141;51.504;7.122;2023-11-22T05:24:52;102444.00;;;0.48;100.00
84055;BME280;74141;51.504;7.122;2023-11-22T05:27:17;102444.63;;;0.40;100.00
84055;BME280;74141;51.504;7.122;2023-11-22T05:29:42;102445.38;;;0.37;100.00
84055;BME280;74141;51.504;7.122;2023-11-22T05:32:08;102452.44;;;0.41;100.00
84055;BME280;74141;51.504;7.122;2023-11-22T05:34:34;102442.75;;;0.36;100.00
84055;BME280;74141;51.504;7.122;2023-11-22T05:36:59;102442.63;;;0.31;100.00
84055;BME280;74141;51.504;7.122;2023-11-22T05:39:24;102446.72;;;0.23;100.00
84055;BME280;74141;51.504;7.122;2023-11-22T05:41:50;102465.69;;;0.22;100.00
84055;BME280;74141;51.504;7.122;2023-11-22T05:44:16;102464.09;;;0.27;100.00
84055;BME280;74141;51.504;7.122;2023-11-22T05:46:41;102470.09;;;0.25;100.00
84055;BME280;74141;51.504;7.122;2023-11-22T05:49:07;102469.72;;;0.13;100.00
84055;BME280;74141;51.504;7.122;2023-11-22T05:51:33;102476.41;;;0.06;100.00
84055;BME280;74141;51.504;7.122;2023-11-22T05:53:59;102470.19;;;0.28;100.00
84055;BME280;74141;51.504;7.122;2023-11-22T05:56:24;102477.63;;;0.17;100.00
84055;BME280;74141;51.504;7.122;2023-11-22T05:58:49;102467.34;;;0.20;100.00
84055;BME280;74141;51.504;7.122;2023-11-22T06:01:15;102469.63;;;0.10;100.00
84055;BME280;74141;51.504;7.122;2023-11-22T06:03:40;102464.25;;;0.03;100.00
84055;BME280;74141;51.504;7.122;2023-11-22T06:06:06;102470.41;;;0.07;100.00
84055;BME280;74141;51.504;7.122;2023-11-22T06:08:31;102460.84;;;0.06;100.00
84055;BME280;74141;51.504;7.122;2023-11-22T06:10:57;102460.22;;;0.13;100.00
84055;BME280;74141;51.504;7.122;2023-11-22T06:13:24;102465.88;;;0.00;100.00
84055;BME280;74141;51.504;7.122;2023-11-22T06:15:49;102467.81;;;0.35;100.00
84055;BME280;74141;51.504;7.122;2023-11-22T06:18:15;102469.34;;;0.29;100.00
84055;BME280;74141;51.504;7.122;2023-11-22T06:20:41;102468.78;;;0.11;100.00
84055;BME280;74141;51.504;7.122;2023-11-22T06:23:07;102474.41;;;-0.03;100.00
84055;BME280;74141;51.504;7.122;2023-11-22T06:25:33;102482.53;;;0.08;100.00
84055;BME280;74141;51.504;7.122;2023-11-22T06:27:59;102476.31;;;0.03;100.00
84055;BME280;74141;51.504;7.122;2023-11-22T06:30:24;102477.09;;;0.00;100.00
84055;BME280;74141;51.504;7.122;2023-11-22T06:32:51;102486.53;;;0.25;100.00
84055;BME280;74141;51.504;7.122;2023-11-22T06:35:16;102468.06;;;0.15;100.00
84055;BME280;74141;51.504;7.122;2023-11-22T06:37:43;102487.78;;;0.11;100.00
84055;BME280;74141;51.504;7.122;2023-11-22T06:40:10;102499.56;;;0.00;100.00
84055;BME280;74141;51.504;7.122;2023-11-22T06:42:37;102498.81;;;0.04;100.00
84055;BME280;74141;51.504;7.122;2023-11-22T06:45:06;102491.03;;;0.04;100.00
84055;BME280;74141;51.504;7.122;2023-11-22T06:47:35;102493.63;;;0.04;100.00
84055;BME280;74141;51.504;7.122;2023-11-22T06:50:01;102501.69;;;-0.14;100.00
84055;BME280;74141;51.504;7.122;2023-11-22T06:52:27;102496.81;;;-0.30;100.00
84055;BME280;74141;51.504;7.122;2023-11-22T06:54:53;102496.72;;;-0.34;100.00
84055;BME280;74141;51.504;7.122;2023-11-22T06:57:18;102501.47;;;-0.46;100.00
84055;BME280;74141;51.504;7.122;2023-11-22T06:59:43;102501.06;;;-0.58;100.00
84055;BME280;74141;51.504;7.122;2023-11-22T07:02:09;102506.88;;;-0.65;100.00
84055;BME280;74141;51.504;7.122;2023-11-22T07:04:34;102496.69;;;-0.84;100.00
84055;BME280;74141;51.504;7.122;2023-11-22T07:06:59;102509.50;;;-0.87;100.00
84055;BME280;74141;51.504;7.122;2023-11-22T07:09:25;102511.34;;;-0.85;100.00
84055;BME280;74141;51.504;7.122;2023-11-22T07:11:51;102516.72;;;-0.79;100.00
84055;BME280;74141;51.504;7.122;2023-11-22T07:14:17;102518.66;;;-0.73;100.00
84055;BME280;74141;51.504;7.122;2023-11-22T07:16:42;102536.81;;;-0.72;100.00
84055;BME280;74141;51.504;7.122;2023-11-22T07:19:07;102530.25;;;-0.86;100.00
84055;BME280;74141;51.504;7.122;2023-11-22T07:21:33;102537.03;;;-0.89;100.00
84055;BME280;74141;51.504;7.122;2023-11-22T07:23:58;102534.13;;;-0.98;100.00
84055;BME280;74141;51.504;7.122;2023-11-22T07:26:24;102544.19;;;-1.06;100.00
84055;BME280;74141;51.504;7.122;2023-11-22T07:28:52;102551.94;;;-1.06;100.00
84055;BME280;74141;51.504;7.122;2023-11-22T07:31:17;102560.44;;;-0.86;100.00
84055;BME280;74141;51.504;7.122;2023-11-22T07:33:42;102571.34;;;-0.71;100.00
84055;BME280;74141;51.504;7.122;2023-11-22T07:36:08;102570.88;;;-0.60;100.00
84055;BME280;74141;51.504;7.122;2023-11-22T07:38:34;102558.97;;;-0.55;100.00
84055;BME280;74141;51.504;7.122;2023-11-22T07:40:59;102567.84;;;-0.48;100.00
84055;BME280;74141;51.504;7.122;2023-11-22T07:43:25;102567.00;;;-0.47;100.00
84055;BME280;74141;51.504;7.122;2023-11-22T07:45:50;102566.09;;;-0.49;100.00
84055;BME280;74141;51.504;7.122;2023-11-22T07:48:16;102569.03;;;-0.39;100.00
84055;BME280;74141;51.504;7.122;2023-11-22T07:50:41;102557.31;;;-0.28;100.00
84055;BME280;74141;51.504;7.122;2023-11-22T07:53:12;102548.88;;;0.04;100.00
84055;BME280;74141;51.504;7.122;2023-11-22T07:55:38;102555.63;;;0.53;100.00
84055;BME280;74141;51.504;7.122;2023-11-22T07:58:04;102552.41;;;0.89;100.00
84055;BME280;74141;51.504;7.122;2023-11-22T08:00:32;102531.41;;;1.11;100.00
84055;BME280;74141;51.504;7.122;2023-11-22T08:02:59;102525.97;;;1.33;100.00
84055;BME280;74141;51.504;7.122;2023-11-22T08:05:26;102518.34;;;1.73;99.25
84055;BME280;74141;51.504;7.122;2023-11-22T08:07:53;102517.78;;;2.21;97.71
84055;BME280;74141;51.504;7.122;2023-11-22T08:10:18;102502.31;;;2.65;97.57
84055;BME280;74141;51.504;7.122;2023-11-22T08:12:47;102504.88;;;3.05;94.82
84055;BME280;74141;51.504;7.122;2023-11-22T08:15:16;102505.16;;;3.19;92.59
84055;BME280;74141;51.504;7.122;2023-11-22T08:17:42;102509.75;;;3.33;93.49
84055;BME280;74141;51.504;7.122;2023-11-22T08:20:08;102515.25;;;3.48;93.50
84055;BME280;74141;51.504;7.122;2023-11-22T08:22:41;102515.34;;;3.53;91.43
84055;BME280;74141;51.504;7.122;2023-11-22T08:25:08;102528.06;;;3.85;92.75
84055;BME280;74141;51.504;7.122;2023-11-22T08:27:34;102532.53;;;3.94;92.26
84055;BME280;74141;51.504;7.122;2023-11-22T08:29:59;102533.50;;;3.97;92.29
84055;BME280;74141;51.504;7.122;2023-11-22T08:32:30;102531.88;;;4.05;89.59
84055;BME280;74141;51.504;7.122;2023-11-22T08:34:56;102545.34;;;4.33;90.57
84055;BME280;74141;51.504;7.122;2023-11-22T08:37:21;102558.44;;;4.37;88.56
84055;BME280;74141;51.504;7.122;2023-11-22T08:39:47;102575.47;;;4.12;88.75
84055;BME280;74141;51.504;7.122;2023-11-22T08:42:12;102575.34;;;4.05;89.91
84055;BME280;74141;51.504;7.122;2023-11-22T08:44:39;102586.00;;;4.18;90.65
84055;BME280;74141;51.504;7.122;2023-11-22T08:47:04;102601.06;;;4.36;90.39
84055;BME280;74141;51.504;7.122;2023-11-22T08:49:30;102618.28;;;4.27;86.19
84055;BME280;74141;51.504;7.122;2023-11-22T08:51:56;102622.28;;;4.60;89.21
84055;BME280;74141;51.504;7.122;2023-11-22T08:54:21;102629.50;;;4.75;89.13
84055;BME280;74141;51.504;7.122;2023-11-22T08:56:46;102623.06;;;4.53;84.13
84055;BME280;74141;51.504;7.122;2023-11-22T08:59:12;102616.03;;;4.48;82.80
84055;BME280;74141;51.504;7.122;2023-11-22T09:01:39;102605.09;;;4.73;83.03
84055;BME280;74141;51.504;7.122;2023-11-22T09:04:05;102594.13;;;4.98;83.30
84055;BME280;74141;51.504;7.122;2023-11-22T09:06:33;102591.53;;;4.99;80.38
84055;BME280;74141;51.504;7.122;2023-11-22T09:09:00;102593.53;;;5.18;82.00
84055;BME280;74141;51.504;7.122;2023-11-22T09:11:26;102603.25;;;5.31;79.14
84055;BME280;74141;51.504;7.122;2023-11-22T09:13:51;102586.69;;;5.28;78.99
84055;BME280;74141;51.504;7.122;2023-11-22T09:16:18;102588.59;;;5.42;78.38
84055;BME280;74141;51.504;7.122;2023-11-22T09:18:44;102586.97;;;5.55;76.57
84055;BME280;74141;51.504;7.122;2023-11-22T09:21:09;102586.88;;;5.46;74.59
84055;BME280;74141;51.504;7.122;2023-11-22T09:23:35;102578.53;;;5.02;74.24
84055;BME280;74141;51.504;7.122;2023-11-22T09:26:03;102591.47;;;4.95;73.44
84055;BME280;74141;51.504;7.122;2023-11-22T09:28:30;102590.44;;;4.81;74.92
84055;BME280;74141;51.504;7.122;2023-11-22T09:30:55;102563.69;;;4.98;73.98
84055;BME280;74141;51.504;7.122;2023-11-22T09:33:26;102558.44;;;4.97;73.92
84055;BME280;74141;51.504;7.122;2023-11-22T09:35:52;102550.63;;;4.98;72.70
84055;BME280;74141;51.504;7.122;2023-11-22T09:38:17;102561.16;;;5.04;70.23
84055;BME280;74141;51.504;7.122;2023-11-22T09:43:12;102556.03;;;5.16;73.18
84055;BME280;74141;51.504;7.122;2023-11-22T09:45:42;102556.06;;;5.18;72.17
84055;BME280;74141;51.504;7.122;2023-11-22T09:48:20;102565.47;;;5.04;71.01
84055;BME280;74141;51.504;7.122;2023-11-22T09:51:24;102576.97;;;5.19;70.15
84055;BME280;74141;51.504;7.122;2023-11-22T09:53:58;102578.59;;;5.07;70.97
84055;BME280;74141;51.504;7.122;2023-11-22T09:56:26;102576.84;;;5.07;68.66
84055;BME280;74141;51.504;7.122;2023-11-22T09:58:54;102578.56;;;5.05;68.43
84055;BME280;74141;51.504;7.122;2023-11-22T10:01:21;102576.94;;;5.13;70.28
84055;BME280;74141;51.504;7.122;2023-11-22T10:03:47;102580.41;;;5.14;70.57
84055;BME280;74141;51.504;7.122;2023-11-22T10:06:13;102583.97;;;5.20;70.03
84055;BME280;74141;51.504;7.122;2023-11-22T10:08:40;102569.16;;;5.21;69.14
84055;BME280;74141;51.504;7.122;2023-11-22T10:11:06;102577.03;;;5.22;69.29
84055;BME280;74141;51.504;7.122;2023-11-22T10:13:32;102574.44;;;5.24;68.24
84055;BME280;74141;51.504;7.122;2023-11-22T10:16:09;102574.44;;;5.24;68.54
84055;BME280;74141;51.504;7.122;2023-11-22T10:18:39;102575.41;;;5.33;68.05
84055;BME280;74141;51.504;7.122;2023-11-22T10:21:18;102573.81;;;5.47;67.17
84055;BME280;74141;51.504;7.122;2023-11-22T10:23:44;102573.81;;;5.47;65.11
84055;BME280;74141;51.504;7.122;2023-11-22T10:26:09;102582.53;;;5.46;65.69
84055;BME280;74141;51.504;7.122;2023-11-22T10:28:34;102575.59;;;5.48;64.91
84055;BME280;74141;51.504;7.122;2023-11-22T10:31:00;102584.34;;;5.53;64.16
84055;BME280;74141;51.504;7.122;2023-11-22T10:33:25;102574.03;;;5.65;64.07
84055;BME280;74141;51.504;7.122;2023-11-22T10:35:51;102567.88;;;5.60;62.64
84055;BME280;74141;51.504;7.122;2023-11-22T10:38:18;102562.59;;;5.54;62.31
84055;BME280;74141;51.504;7.122;2023-11-22T10:40:44;102570.56;;;5.66;62.84
84055;BME280;74141;51.504;7.122;2023-11-22T10:43:14;102578.34;;;5.60;62.29
84055;BME280;74141;51.504;7.122;2023-11-22T10:45:40;102569.03;;;5.86;62.42
84055;BME280;74141;51.504;7.122;2023-11-22T10:48:07;102567.34;;;5.90;62.05
84055;BME280;74141;51.504;7.122;2023-11-22T10:50:34;102565.56;;;5.87;62.89
84055;BME280;74141;51.504;7.122;2023-11-22T10:53:00;102559.63;;;6.06;62.26
84055;BME280;74141;51.504;7.122;2023-11-22T10:55:32;102557.81;;;5.99;60.58
84055;BME280;74141;51.504;7.122;2023-11-22T10:58:02;102560.66;;;6.27;61.96
84055;BME280;74141;51.504;7.122;2023-11-22T11:00:29;102553.78;;;6.41;61.55
84055;BME280;74141;51.504;7.122;2023-11-22T11:03:03;102550.31;;;6.40;60.35
84055;BME280;74141;51.504;7.122;2023-11-22T11:05:36;102556.34;;;6.36;60.62
84055;BME280;74141;51.504;7.122;2023-11-22T11:08:11;102551.13;;;6.38;60.45
84055;BME280;74141;51.504;7.122;2023-11-22T11:10:42;102545.91;;;6.38;59.90
84055;BME280;74141;51.504;7.122;2023-11-22T11:13:08;102551.09;;;6.30;60.12
84055;BME280;74141;51.504;7.122;2023-11-22T11:15:39;102545.88;;;6.36;59.69
84055;BME280;74141;51.504;7.122;2023-11-22T11:18:09;102538.91;;;6.35;60.64
84055;BME280;74141;51.504;7.122;2023-11-22T11:20:56;102514.50;;;6.42;59.85
84055;BME280;74141;51.504;7.122;2023-11-22T11:23:26;102525.88;;;6.44;59.74
84055;BME280;74141;51.504;7.122;2023-11-22T11:25:56;102525.00;;;6.47;59.57
84055;BME280;74141;51.504;7.122;2023-11-22T11:28:23;102526.72;;;6.39;58.86
84055;BME280;74141;51.504;7.122;2023-11-22T11:30:51;102529.41;;;6.48;57.53
84055;BME280;74141;51.504;7.122;2023-11-22T11:33:32;102530.25;;;6.47;58.10
84055;BME280;74141;51.504;7.122;2023-11-22T11:35:58;102544.25;;;6.52;58.37
84055;BME280;74141;51.504;7.122;2023-11-22T11:38:34;102528.56;;;6.53;59.17
84055;BME280;74141;51.504;7.122;2023-11-22T11:41:08;102536.56;;;6.79;59.75
84055;BME280;74141;51.504;7.122;2023-11-22T11:43:43;102559.22;;;6.75;58.97
84055;BME280;74141;51.504;7.122;2023-11-22T11:46:13;102566.09;;;6.54;57.94
84055;BME280;74141;51.504;7.122;2023-11-22T11:48:47;102550.25;;;6.34;57.76
84055;BME280;74141;51.504;7.122;2023-11-22T11:51:17;102553.72;;;6.30;58.21
84055;BME280;74141;51.504;7.122;2023-11-22T11:53:43;102546.72;;;6.28;58.90
84055;BME280;74141;51.504;7.122;2023-11-22T11:56:09;102540.63;;;6.27;57.74
84055;BME280;74141;51.504;7.122;2023-11-22T11:58:35;102521.34;;;6.17;58.49
84055;BME280;74141;51.504;7.122;2023-11-22T12:01:00;102506.50;;;6.13;57.77
84055;BME280;74141;51.504;7.122;2023-11-22T12:03:27;102491.59;;;6.02;58.55
84055;BME280;74141;51.504;7.122;2023-11-22T12:05:53;102475.81;;;5.91;58.66
84055;BME280;74141;51.504;7.122;2023-11-22T12:08:18;102460.81;;;5.78;59.60
84055;BME280;74141;51.504;7.122;2023-11-22T12:10:45;102446.69;;;5.52;58.57
84055;BME280;74141;51.504;7.122;2023-11-22T12:13:18;102429.25;;;5.51;60.50
84055;BME280;74141;51.504;7.122;2023-11-22T12:15:43;102425.75;;;5.52;59.58
84055;BME280;74141;51.504;7.122;2023-11-22T12:18:09;102418.78;;;5.48;59.11
84055;BME280;74141;51.504;7.122;2023-11-22T12:20:34;102415.31;;;5.52;60.75
84055;BME280;74141;51.504;7.122;2023-11-22T12:23:00;102412.72;;;5.54;57.91
84055;BME280;74141;51.504;7.122;2023-11-22T12:25:27;102407.50;;;5.55;59.44
84055;BME280;74141;51.504;7.122;2023-11-22T12:27:54;102411.00;;;5.57;58.53
84055;BME280;74141;51.504;7.122;2023-11-22T12:30:34;102402.28;;;5.57;57.92
84055;BME280;74141;51.504;7.122;2023-11-22T12:33:04;102398.75;;;5.52;57.65
84055;BME280;74141;51.504;7.122;2023-11-22T12:35:30;102391.72;;;5.45;57.74
84055;BME280;74141;51.504;7.122;2023-11-22T12:37:58;102376.91;;;5.42;57.89
84055;BME280;74141;51.504;7.122;2023-11-22T12:40:24;102393.50;;;5.50;57.86
84055;BME280;74141;51.504;7.122;2023-11-22T12:42:50;102394.34;;;5.48;58.08
84055;BME280;74141;51.504;7.122;2023-11-22T12:45:20;102393.47;;;5.49;59.18
84055;BME280;74141;51.504;7.122;2023-11-22T12:47:46;102386.56;;;5.52;58.19
84055;BME280;74141;51.504;7.122;2023-11-22T12:50:29;102393.56;;;5.56;59.74
84055;BME280;74141;51.504;7.122;2023-11-22T12:52:56;102404.94;;;5.61;60.96
84055;BME280;74141;51.504;7.122;2023-11-22T12:55:21;102404.06;;;5.64;60.10
84055;BME280;74141;51.504;7.122;2023-11-22T12:57:58;102402.34;;;5.66;58.25